sim
Sign-in with your pilot id or email,
or register
Callsign
Passwort

Schedule Details

Flight Number: DLH2195 (2)
Departure: Berlin Tegel Airport (EDDT) at 09:25
Arrival: Munich Airport (EDDM) at 10:35
Route: Lufthansa Passenger Schedule. Enter filed route here before submitting Pirep.

Weather Information
Getting current METAR information for EDDT 250320Z 25003KT 200V280 8000 RA BKN042 13/12 Q0999 TEMPO 25015G25KT 4000 TSRA
Getting current METAR information for EDDM 250320Z 22007KT 9999 -RA FEW008 SCT043 13/12 Q1002 NOSIG

Schedule Frequency

Route Map